createdAt,value
2023-05-01T00:04:13.525Z,0.00
2023-05-01T00:09:13.279Z,0.00
2023-05-01T00:14:13.215Z,0.00
2023-05-01T00:19:13.180Z,0.00
2023-05-01T00:24:13.120Z,0.00
2023-05-01T00:29:13.140Z,0.00
2023-05-01T00:34:13.110Z,0.00
2023-05-01T00:39:12.999Z,0.00
2023-05-01T00:44:12.905Z,0.00
2023-05-01T00:49:12.815Z,0.00
2023-05-01T00:54:12.767Z,0.00
2023-05-01T00:59:12.727Z,0.00
2023-05-01T01:04:13.730Z,0.00
2023-05-01T01:09:12.725Z,0.00
2023-05-01T01:14:12.666Z,0.00
2023-05-01T01:19:12.581Z,0.00
2023-05-01T01:24:12.553Z,0.00
2023-05-01T01:29:12.448Z,0.00
2023-05-01T01:34:12.332Z,0.00
2023-05-01T01:39:12.299Z,0.00
2023-05-01T01:44:12.362Z,0.00
2023-05-01T01:49:12.314Z,0.00
2023-05-01T01:54:12.237Z,0.00
2023-05-01T01:59:13.074Z,0.00
2023-05-01T02:04:12.213Z,0.00
2023-05-01T02:09:11.946Z,0.00
2023-05-01T02:14:11.913Z,0.00
2023-05-01T02:19:11.828Z,0.00
2023-05-01T02:24:11.808Z,0.00
2023-05-01T02:29:11.753Z,0.00
2023-05-01T02:34:11.785Z,0.00
2023-05-01T02:39:11.738Z,0.00
2023-05-01T02:44:11.671Z,0.00
2023-05-01T02:49:11.525Z,0.00
2023-05-01T02:54:11.447Z,0.00
2023-05-01T02:59:11.429Z,0.00
2023-05-01T03:04:11.470Z,0.00
2023-05-01T03:09:11.324Z,0.00
2023-05-01T03:14:11.384Z,0.00
2023-05-01T03:19:12.253Z,0.00
2023-05-01T03:24:11.267Z,0.00
2023-05-01T03:29:11.170Z,0.00
2023-05-01T03:34:19.937Z,0.00
2023-05-01T03:39:10.980Z,0.00
2023-05-01T03:44:10.919Z,0.00
2023-05-01T03:49:10.863Z,0.00
2023-05-01T03:54:10.905Z,5.62
2023-05-01T03:59:10.852Z,5.62
2023-05-01T04:04:10.981Z,11.25
2023-05-01T04:09:10.684Z,16.88
2023-05-01T04:14:10.588Z,28.12
2023-05-01T04:19:10.548Z,39.38
2023-05-01T04:24:10.482Z,56.25
2023-05-01T04:29:10.557Z,67.50
2023-05-01T04:34:10.460Z,84.38
2023-05-01T04:39:10.325Z,101.25
2023-05-01T04:44:10.222Z,123.75
2023-05-01T04:49:10.269Z,146.25
2023-05-01T04:54:10.126Z,168.75
2023-05-01T04:59:10.083Z,213.75
2023-05-01T05:04:10.102Z,247.50
2023-05-01T05:09:10.014Z,281.25
2023-05-01T05:14:10.047Z,298.12
2023-05-01T05:19:09.938Z,298.12
2023-05-01T05:24:09.947Z,315.00
2023-05-01T05:29:09.762Z,337.50
2023-05-01T05:34:09.714Z,371.25
2023-05-01T05:39:09.631Z,427.50
2023-05-01T05:44:09.648Z,483.75
2023-05-01T05:49:09.587Z,568.12
2023-05-01T05:54:09.492Z,618.75
2023-05-01T05:59:09.448Z,658.12
2023-05-01T06:04:09.467Z,697.50
2023-05-01T06:09:09.307Z,703.12
2023-05-01T06:14:09.232Z,714.38
2023-05-01T06:19:09.198Z,753.75
2023-05-01T06:24:09.182Z,826.88
2023-05-01T06:29:09.133Z,838.12
2023-05-01T06:34:09.089Z,849.38
2023-05-01T06:39:09.021Z,928.12
2023-05-01T06:44:09.028Z,984.38
2023-05-01T06:49:08.998Z,956.25
2023-05-01T06:54:08.810Z,950.62
2023-05-01T06:59:08.772Z,967.50
2023-05-01T07:04:08.688Z,1080.00
2023-05-01T07:09:08.646Z,1080.00
2023-05-01T07:14:08.630Z,1057.50
2023-05-01T07:19:08.539Z,1001.25
2023-05-01T07:24:08.486Z,1012.50
2023-05-01T07:29:11.814Z,1096.88
2023-05-01T07:34:15.182Z,1231.88
2023-05-01T07:39:08.435Z,1271.25
2023-05-01T07:44:08.359Z,1293.75
2023-05-01T07:49:08.245Z,1518.75
2023-05-01T07:54:08.131Z,1552.50
2023-05-01T07:59:08.080Z,2126.25
2023-05-01T08:04:08.130Z,1861.88
2023-05-01T08:09:07.968Z,1625.62
2023-05-01T08:14:07.903Z,1816.88
2023-05-01T08:19:07.949Z,1608.75
2023-05-01T08:24:07.888Z,1546.88
2023-05-01T08:29:08.865Z,1659.38
2023-05-01T08:34:07.760Z,1856.25
2023-05-01T08:39:07.714Z,2851.88
2023-05-01T08:44:07.635Z,3251.25
2023-05-01T08:49:07.527Z,3133.12
2023-05-01T08:54:07.473Z,2970.00
2023-05-01T08:59:07.450Z,3470.62
2023-05-01T09:04:07.427Z,2829.38
2023-05-01T09:09:07.322Z,3701.25
2023-05-01T09:14:07.317Z,3223.12
2023-05-01T09:19:07.255Z,2992.50
2023-05-01T09:24:07.302Z,2598.75
2023-05-01T09:29:07.112Z,2446.88
2023-05-01T09:34:15.924Z,3121.88
2023-05-01T09:40:24.917Z,3757.50
2023-05-01T09:45:17.464Z,3695.62
2023-05-01T09:50:17.317Z,3774.38
2023-05-01T09:55:17.394Z,3611.25
2023-05-01T10:00:18.278Z,4269.38
2023-05-01T10:05:17.118Z,4280.62
2023-05-01T10:10:17.073Z,4635.00
2023-05-01T10:15:25.595Z,4663.12
2023-05-01T10:20:18.013Z,3774.38
2023-05-01T10:25:17.084Z,4747.50
2023-05-01T10:30:17.075Z,4691.25
2023-05-01T10:35:16.855Z,4500.00
2023-05-01T10:40:16.816Z,5191.88
2023-05-01T10:45:16.710Z,4753.12
2023-05-01T10:50:16.696Z,4685.62
2023-05-01T10:55:16.573Z,3639.38
2023-05-01T11:00:16.603Z,4438.12
2023-05-01T11:05:19.981Z,3003.75
2023-05-01T11:10:17.490Z,4494.38
2023-05-01T11:15:16.421Z,3493.12
2023-05-01T11:20:16.328Z,3245.62
2023-05-01T11:25:16.388Z,4488.75
2023-05-01T11:30:16.347Z,5315.62
2023-05-01T11:35:16.321Z,6221.25
2023-05-01T11:40:16.103Z,5833.12
2023-05-01T11:45:16.100Z,3757.50
2023-05-01T11:50:16.357Z,3133.12
2023-05-01T11:55:15.999Z,2300.62
2023-05-01T12:00:15.933Z,2621.25
2023-05-01T12:05:15.932Z,1884.38
2023-05-01T12:10:15.966Z,1693.12
2023-05-01T12:15:15.913Z,1732.50
2023-05-01T12:20:15.745Z,1434.38
2023-05-01T12:25:15.709Z,1327.50
2023-05-01T12:30:15.610Z,945.00
2023-05-01T12:35:15.614Z,781.88
2023-05-01T12:40:15.599Z,596.25
2023-05-01T12:45:15.611Z,444.38
2023-05-01T12:50:15.467Z,416.25
2023-05-01T12:55:15.368Z,478.12
2023-05-01T13:00:15.345Z,545.62
2023-05-01T13:05:15.252Z,624.38
2023-05-01T13:10:15.267Z,742.50
2023-05-01T13:15:15.117Z,911.25
2023-05-01T13:20:15.074Z,1170.00
2023-05-01T13:25:15.050Z,1513.12
2023-05-01T13:30:14.966Z,1721.25
2023-05-01T13:35:15.033Z,2497.50
2023-05-01T13:40:18.367Z,1513.12
2023-05-01T13:45:14.915Z,1378.12
2023-05-01T13:50:14.840Z,1186.88
2023-05-01T13:55:14.835Z,1057.50
2023-05-01T14:00:14.686Z,1023.75
2023-05-01T14:05:14.643Z,1153.12
2023-05-01T14:10:14.555Z,1063.12
2023-05-01T14:15:14.485Z,1029.38
2023-05-01T14:20:14.428Z,956.25
2023-05-01T14:25:14.342Z,894.38
2023-05-01T14:30:14.316Z,905.62
2023-05-01T14:35:14.252Z,973.12
2023-05-01T14:40:14.197Z,1080.00
2023-05-01T14:45:14.254Z,1068.75
2023-05-01T14:50:14.091Z,1040.62
2023-05-01T14:55:14.033Z,1085.62
2023-05-01T15:00:14.998Z,1321.88
2023-05-01T15:05:13.912Z,1057.50
2023-05-01T15:10:13.994Z,871.88
2023-05-01T15:15:14.942Z,714.38
2023-05-01T15:20:13.857Z,624.38
2023-05-01T15:25:13.732Z,742.50
2023-05-01T15:30:13.712Z,855.00
2023-05-01T15:35:13.651Z,945.00
2023-05-01T15:40:13.625Z,916.88
2023-05-01T15:45:23.550Z,939.38
2023-05-01T15:50:13.560Z,793.12
2023-05-01T15:55:13.440Z,770.62
2023-05-01T16:00:13.379Z,821.25
2023-05-01T16:05:13.344Z,855.00
2023-05-01T16:10:13.222Z,787.50
2023-05-01T16:15:13.204Z,781.88
2023-05-01T16:20:13.170Z,770.62
2023-05-01T16:25:13.115Z,731.25
2023-05-01T16:30:13.014Z,675.00
2023-05-01T16:35:12.927Z,630.00
2023-05-01T16:40:12.896Z,624.38
2023-05-01T16:45:12.855Z,601.88
2023-05-01T16:50:12.815Z,590.62
2023-05-01T16:55:12.730Z,573.75
2023-05-01T17:00:12.769Z,517.50
2023-05-01T17:05:12.718Z,399.38
2023-05-01T17:10:12.639Z,337.50
2023-05-01T17:15:12.562Z,298.12
2023-05-01T17:20:12.510Z,270.00
2023-05-01T17:25:12.430Z,275.62
2023-05-01T17:30:12.378Z,309.38
2023-05-01T17:35:12.294Z,258.75
2023-05-01T17:40:12.252Z,219.38
2023-05-01T17:45:12.162Z,225.00
2023-05-01T17:50:12.165Z,230.62
2023-05-01T17:55:12.077Z,236.25
2023-05-01T18:00:12.018Z,202.50
2023-05-01T18:05:11.961Z,180.00
2023-05-01T18:10:11.930Z,157.50
2023-05-01T18:15:13.754Z,140.62
2023-05-01T18:20:11.809Z,123.75
2023-05-01T18:25:11.884Z,112.50
2023-05-01T18:30:11.774Z,90.00
2023-05-01T18:35:11.699Z,67.50
2023-05-01T18:40:11.693Z,50.62
2023-05-01T18:45:11.502Z,33.75
2023-05-01T18:50:11.533Z,22.50
2023-05-01T18:55:11.558Z,11.25
2023-05-01T19:00:11.398Z,5.62
2023-05-01T19:05:11.356Z,5.62
2023-05-01T19:10:11.286Z,0.00
2023-05-01T19:15:11.199Z,0.00
2023-05-01T19:20:11.126Z,0.00
2023-05-01T19:25:11.063Z,0.00
2023-05-01T19:30:11.039Z,0.00
2023-05-01T19:35:11.051Z,0.00
2023-05-01T19:40:10.956Z,0.00
2023-05-01T19:45:10.868Z,0.00
2023-05-01T19:50:10.825Z,0.00
2023-05-01T19:55:10.877Z,0.00
2023-05-01T20:00:11.702Z,0.00
2023-05-01T20:05:10.751Z,0.00
2023-05-01T20:10:10.643Z,0.00
2023-05-01T20:15:10.498Z,0.00
2023-05-01T20:20:10.483Z,0.00
2023-05-01T20:25:10.408Z,0.00
2023-05-01T20:30:10.385Z,0.00
2023-05-01T20:35:10.301Z,0.00
2023-05-01T20:40:10.365Z,0.00
2023-05-01T20:45:10.193Z,0.00
2023-05-01T20:50:10.137Z,0.00
2023-05-01T20:55:10.436Z,0.00
2023-05-01T21:00:10.124Z,0.00
2023-05-01T21:05:10.059Z,0.00
2023-05-01T21:10:10.056Z,0.00
2023-05-01T21:15:09.950Z,0.00
2023-05-01T21:20:09.840Z,0.00
2023-05-01T21:25:09.945Z,0.00
2023-05-01T21:30:09.703Z,0.00
2023-05-01T21:35:09.799Z,0.00
2023-05-01T21:40:09.762Z,0.00
2023-05-01T21:45:09.522Z,0.00
2023-05-01T21:50:19.341Z,0.00
2023-05-01T21:55:09.400Z,0.00
2023-05-01T22:00:09.542Z,0.00
2023-05-01T22:05:09.478Z,0.00
2023-05-01T22:10:09.391Z,0.00
2023-05-01T22:15:09.329Z,0.00
2023-05-01T22:20:09.207Z,0.00
2023-05-01T22:25:09.064Z,0.00
2023-05-01T22:30:09.019Z,0.00
2023-05-01T22:35:09.053Z,0.00
2023-05-01T22:40:08.899Z,0.00
2023-05-01T22:45:08.886Z,0.00
2023-05-01T22:50:08.824Z,0.00
2023-05-01T22:55:08.865Z,0.00
2023-05-01T23:00:08.814Z,0.00
2023-05-01T23:05:08.733Z,0.00
2023-05-01T23:10:08.668Z,0.00
2023-05-01T23:15:08.526Z,0.00
2023-05-01T23:20:08.562Z,0.00
2023-05-01T23:25:08.441Z,0.00
2023-05-01T23:30:08.343Z,0.00
2023-05-01T23:35:08.273Z,0.00
2023-05-01T23:40:08.271Z,0.00
2023-05-01T23:45:08.241Z,0.00
2023-05-01T23:50:08.164Z,0.00
2023-05-01T23:55:08.119Z,0.00
